Ana Sayfa
METAR-TAF:

METAR-TAF

Havaalanları :

Amman, Ürdün

Enlem: 31-59N, Boylam: 035-59E, yükseklik: 767 m

Güncel hava durumu gözlemi

Rapor saat 04:00 UTC de 38 dakika önce yapıldı.
Sakin rüzgar
Sıcaklık 19°C
Nem 68%
Basınç 1012 hPa
Görüş mesafesi: 5000 m
3000 ft yükseklikte az bulutlu
Toz Pusu

METAR: OJAM 190400Z 00000KT 5000 HZ FEW030 19/13 Q1012 NOSIG

Saat: 07:38 (04:38 UTC)

Tahmin

Rapor saat 22:50 UTC de 5 saat ve 48 dakika önce yapıldı.
Ayın 19'si saat 00 UTC'den ayın 20'si saat 06 UTC'ye kadar geçerli Tahmin
Rüzgar değişken yönden 2 kt
Görüş mesafesi: 6000 m
Geçici
ayın 19'si saat 02 UTC'den ayın 19'si saat 05 UTC'ye kadar
Görüş mesafesi: 3000 m
Toz Pusu
Dönüşüyor
ayın 19'si saat 05 UTC'den ayın 19'si saat 07 UTC'ye kadar
Rüzgar batıdan 12 kt
Görüş mesafesi: 5000 m
Toz Pusu

TAF: OJAM 182250Z 1900/2006 VRB02KT 6000 NSC TEMPO 1902/1905 3000 HZ BECMG 1905/1907 27012KT 5000 HZ NSC

4.000'den fazla havaalanı için hava durumu gözlemleri ve tahminleri (METAR ve TAF raporları).

Kullanılabilir istasyonlar harita üzerinde sarı ve kırmızı noktalarla gösterilir.

İstasyonun adını görmek için fareyi noktanın üzerinde gezdirin.

Sonrasında hava gözlem ve tahminlerini görmek için tıklayın.

Haritayı değiştirmek için: yaklaştırmak için siyah artı işaretli yeşil düğmeye ve uzaklaştırmak için de eksi işaretli düğmeye hızla tıklayın; bitişik haritalar için yeşil okları kullanın.


METAR-TAF: